Cleveland, Ohio
Traffic Map
Current Weather Conditions
Cleveland, Ohio
Clear
Clear
74°
Feels Like: 74°
Wind Chill: 74° Ceiling: Unl
Heat Index: 74° Visibility: 9mi
Dew Point: 71° Wind: 5mph
Humidity: 91% Direction: 200° (SSW)
Pressure: 30.12in Gusts: 0mph
Raw Report DataKBKL 280453Z AUTO 20004KT 9SM CLR 23/22 A3012 RMK AO2 SLP196 T02330217 403390206 TSNO
Traffic Incident Summary
Active as of:
Severity:
Category:
InformationThere was an issue retrieving the traffic information for this location. Please try a different location or try again shortly.
Advertisements
Track Severe Weather on mobile